Time;durP1;ratioP1;P1;durP2;ratioP2;P2;SDS_P1;SDS_P2;PMS_P1;PMS_P2;Temp;Humidity;BMP_temperature;BMP_pressure;BME280_temperature;BME280_humidity;BME280_pressure;Samples;Min_cycle;Max_cycle;Signal;HPM_P1;HPM_P2
2022/11/27 00:00:56;;;;;;;1999.90;999.90;;;2.20;99.90;;;;;;5031544;28;20468;-68
2022/11/27 00:03:24;;;;;;;1999.90;999.90;;;2.10;99.90;;;;;;5030226;28;20445;-66
2022/11/27 00:05:53;;;;;;;1999.90;999.90;;;2.00;99.90;;;;;;5029959;28;20456;-67
2022/11/27 00:08:19;;;;;;;1999.90;999.90;;;1.90;99.90;;;;;;5030114;28;20445;-68
2022/11/27 00:10:46;;;;;;;1999.90;999.90;;;1.90;99.90;;;;;;5040477;28;20494;-68
2022/11/27 00:13:13;;;;;;;1999.90;999.90;;;1.90;99.90;;;;;;5037447;28;20452;-65
2022/11/27 00:15:40;;;;;;;1999.90;999.90;;;1.90;99.90;;;;;;5029018;28;20968;-66
2022/11/27 00:18:06;;;;;;;1999.90;999.90;;;2.00;99.90;;;;;;5029719;28;20441;-66
2022/11/27 00:20:35;;;;;;;1999.90;999.90;;;1.90;99.90;;;;;;5040325;28;20460;-67
2022/11/27 00:23:02;;;;;;;1999.90;999.90;;;1.80;99.90;;;;;;5049752;28;20447;-66
2022/11/27 00:25:28;;;;;;;1999.90;999.90;;;1.80;99.90;;;;;;5049819;28;20952;-67
2022/11/27 00:27:55;;;;;;;1999.90;999.90;;;1.70;99.90;;;;;;5049733;28;21056;-66
2022/11/27 00:30:22;;;;;;;1999.90;999.90;;;1.60;99.90;;;;;;5049364;28;20562;-67
2022/11/27 00:32:49;;;;;;;1999.90;999.90;;;1.60;99.90;;;;;;5049437;28;20448;-67
2022/11/27 00:35:16;;;;;;;1999.90;999.90;;;1.60;99.90;;;;;;5049644;28;20456;-67
2022/11/27 00:37:44;;;;;;;1999.90;999.90;;;1.60;99.90;;;;;;5049511;28;20949;-67
2022/11/27 00:40:12;;;;;;;1999.90;999.90;;;1.50;99.90;;;;;;5049685;28;20547;-66
2022/11/27 00:42:39;;;;;;;1999.90;999.90;;;1.40;99.90;;;;;;5049713;28;20537;-67
2022/11/27 00:45:07;;;;;;;1999.90;999.90;;;1.40;99.90;;;;;;5049966;28;20456;-67
2022/11/27 00:47:34;;;;;;;1999.90;999.90;;;1.40;99.90;;;;;;5049449;28;20448;-67
2022/11/27 00:50:00;;;;;;;1999.90;999.90;;;1.30;99.90;;;;;;5049467;28;20491;-66
2022/11/27 00:52:27;;;;;;;1999.90;999.90;;;1.20;99.90;;;;;;5049783;28;20445;-68
2022/11/27 00:54:55;;;;;;;1999.90;999.90;;;1.20;99.90;;;;;;5049492;28;20440;-67
2022/11/27 00:57:22;;;;;;;1999.90;999.90;;;1.30;99.90;;;;;;5047849;28;20849;-67
2022/11/27 00:59:49;;;;;;;1999.90;999.90;;;1.30;99.90;;;;;;5047647;28;20460;-66
2022/11/27 01:02:15;;;;;;;1999.90;999.90;;;1.20;99.90;;;;;;5029693;28;20455;-67
2022/11/27 01:04:45;;;;;;;1999.90;999.90;;;1.10;99.90;;;;;;5029631;28;20452;-67
2022/11/27 01:07:12;;;;;;;1999.90;999.90;;;1.20;99.90;;;;;;5029869;28;20532;-67
2022/11/27 01:09:39;;;;;;;1999.90;999.90;;;1.20;99.90;;;;;;5029028;28;20486;-67
2022/11/27 01:12:08;;;;;;;1999.90;999.90;;;1.20;99.90;;;;;;5029537;28;20455;-67
2022/11/27 01:14:35;;;;;;;1999.90;999.90;;;1.30;99.90;;;;;;5029375;28;20456;-66
2022/11/27 01:17:02;;;;;;;1999.90;999.90;;;1.30;99.90;;;;;;5029289;28;20445;-67
2022/11/27 01:19:28;;;;;;;1999.90;999.90;;;1.30;99.90;;;;;;5031701;28;20465;-66
2022/11/27 01:21:55;;;;;;;1999.90;999.90;;;1.10;99.90;;;;;;5049020;28;20446;-67
2022/11/27 01:24:22;;;;;;;1999.90;999.90;;;1.10;99.90;;;;;;5049202;28;20440;-67
2022/11/27 01:26:49;;;;;;;1999.90;999.90;;;1.10;99.90;;;;;;5048989;28;20824;-67
2022/11/27 01:29:17;;;;;;;1999.90;999.90;;;1.10;99.90;;;;;;5048507;28;20483;-67
2022/11/27 01:31:44;;;;;;;1999.90;999.90;;;1.10;99.90;;;;;;5052868;28;20455;-67
2022/11/27 01:34:15;;;;;;;1999.90;999.90;;;1.10;99.90;;;;;;5053011;28;20451;-68
2022/11/27 01:36:41;;;;;;;1999.90;999.90;;;1.20;99.90;;;;;;5053065;28;20526;-67
2022/11/27 01:39:13;;;;;;;1999.90;999.90;;;1.30;99.90;;;;;;5052323;28;20440;-68
2022/11/27 01:41:40;;;;;;;1999.90;999.90;;;1.40;99.90;;;;;;5052522;28;20513;-68
2022/11/27 01:44:40;;;;;;;1999.90;999.90;;;1.50;99.90;;;;;;5051941;28;20439;-67
2022/11/27 01:47:15;;;;;;;1999.90;999.90;;;1.60;99.90;;;;;;5052707;28;20440;-67
2022/11/27 01:49:45;;;;;;;1999.90;999.90;;;1.60;99.90;;;;;;5052272;28;20868;-67
2022/11/27 01:52:16;;;;;;;1999.90;999.90;;;1.60;99.90;;;;;;5052838;28;20448;-67
2022/11/27 01:54:47;;;;;;;1999.90;999.90;;;1.60;99.90;;;;;;5052725;28;20440;-67
2022/11/27 01:57:18;;;;;;;1999.90;999.90;;;1.70;99.90;;;;;;5052999;28;20509;-68
2022/11/27 01:59:46;;;;;;;1999.90;999.90;;;1.70;99.90;;;;;;5052103;28;20468;-66
2022/11/27 02:02:14;;;;;;;1999.90;999.90;;;1.70;99.90;;;;;;5052669;28;20455;-68
2022/11/27 02:04:41;;;;;;;1999.90;999.90;;;1.70;99.90;;;;;;5052267;28;20451;-68
2022/11/27 02:07:08;;;;;;;1999.90;999.90;;;1.80;99.90;;;;;;5052672;28;20524;-68
2022/11/27 02:09:35;;;;;;;1999.90;999.90;;;1.70;99.90;;;;;;5052115;28;20487;-67
2022/11/27 02:12:08;;;;;;;1999.90;999.90;;;1.80;99.90;;;;;;5052317;28;20451;-67
2022/11/27 02:14:44;;;;;;;1999.90;999.90;;;1.80;99.90;;;;;;5052502;28;20444;-68
2022/11/27 02:17:19;;;;;;;1999.90;999.90;;;1.90;99.90;;;;;;5052038;28;20483;-68
2022/11/27 02:20:04;;;;;;;1999.90;999.90;;;1.90;99.90;;;;;;5052181;28;20464;-67
2022/11/27 02:22:49;;;;;;;1999.90;999.90;;;1.90;99.90;;;;;;5052070;28;21161;-67
2022/11/27 02:25:25;;;;;;;1999.90;999.90;;;1.80;99.90;;;;;;5052346;28;20471;-66
2022/11/27 02:28:22;;;;;;;1999.90;999.90;;;1.90;99.90;;;;;;5051905;28;20854;-67
2022/11/27 02:30:56;;;;;;;1999.90;999.90;;;1.80;99.90;;;;;;5043306;28;20488;-66
2022/11/27 02:33:25;;;;;;;1999.90;999.90;;;1.80;99.90;;;;;;5051847;28;20455;-67
2022/11/27 02:35:57;;;;;;;1999.90;999.90;;;1.80;99.90;;;;;;5051880;28;21080;-67
2022/11/27 02:38:29;;;;;;;1999.90;999.90;;;1.80;99.90;;;;;;5051651;28;20444;-68
2022/11/27 02:41:02;;;;;;;1999.90;999.90;;;1.90;99.90;;;;;;5052116;28;20468;-67
2022/11/27 02:43:33;;;;;;;1999.90;999.90;;;1.90;99.90;;;;;;5051202;28;20466;-67
2022/11/27 02:46:03;;;;;;;1999.90;999.90;;;1.90;99.90;;;;;;5051935;28;20448;-68
2022/11/27 02:48:34;;;;;;;1999.90;999.90;;;1.90;99.90;;;;;;5051390;28;21252;-67
2022/11/27 02:51:02;;;;;;;1999.90;999.90;;;1.90;99.90;;;;;;5051801;28;20483;-67
2022/11/27 02:53:36;;;;;;;1999.90;999.90;;;2.00;99.90;;;;;;5051634;28;20451;-67
2022/11/27 02:56:06;;;;;;;1999.90;999.90;;;2.00;99.90;;;;;;5052122;28;20444;-67
2022/11/27 02:58:36;;;;;;;1999.90;999.90;;;1.90;99.90;;;;;;5051394;28;20449;-67
2022/11/27 03:01:06;;;;;;;1999.90;999.90;;;1.90;99.90;;;;;;5051483;28;20470;-67
2022/11/27 03:03:40;;;;;;;1999.90;999.90;;;1.90;99.90;;;;;;5051796;28;20444;-68
2022/11/27 03:06:10;;;;;;;1999.90;999.90;;;1.90;99.90;;;;;;5051443;28;20863;-67
2022/11/27 03:08:42;;;;;;;1999.90;999.90;;;1.90;99.90;;;;;;5051224;28;20448;-67
2022/11/27 03:11:12;;;;;;;1999.90;999.90;;;1.90;99.90;;;;;;5050947;28;20487;-67
2022/11/27 03:13:42;;;;;;;1999.90;999.90;;;1.80;99.90;;;;;;5051872;28;20471;-67
2022/11/27 03:16:16;;;;;;;1999.90;999.90;;;1.80;99.90;;;;;;5051518;28;20456;-67
2022/11/27 03:18:52;;;;;;;1999.90;999.90;;;1.70;99.90;;;;;;5051223;28;20526;-67
2022/11/27 03:21:28;;;;;;;1999.90;999.90;;;1.70;99.90;;;;;;5051069;28;20467;-68
2022/11/27 03:23:55;;;;;;;1999.90;999.90;;;1.70;99.90;;;;;;5051464;28;20456;-67
2022/11/27 03:26:22;;;;;;;1999.90;999.90;;;1.80;99.90;;;;;;5051284;28;20468;-67
2022/11/27 03:28:51;;;;;;;1999.90;999.90;;;1.70;99.90;;;;;;5051119;28;20950;-67
2022/11/27 03:31:19;;;;;;;1999.90;999.90;;;1.70;99.90;;;;;;5031081;28;20488;-68
2022/11/27 03:33:47;;;;;;;1999.90;999.90;;;1.60;99.90;;;;;;5031073;28;20968;-67
2022/11/27 03:36:15;;;;;;;1999.90;999.90;;;1.60;99.90;;;;;;5031077;28;20463;-67
2022/11/27 03:38:43;;;;;;;1999.90;999.90;;;1.60;99.90;;;;;;5030648;28;20444;-67
2022/11/27 03:41:16;;;;;;;1999.90;999.90;;;1.60;99.90;;;;;;5030992;28;20468;-67
2022/11/27 03:43:52;;;;;;;1999.90;999.90;;;1.60;99.90;;;;;;5030710;28;20445;-67
2022/11/27 03:46:27;;;;;;;1999.90;999.90;;;1.50;99.90;;;;;;5030781;28;20459;-67
2022/11/27 03:48:59;;;;;;;1999.90;999.90;;;1.50;99.90;;;;;;5030082;28;20452;-67
2022/11/27 03:51:34;;;;;;;1999.90;999.90;;;1.50;99.90;;;;;;5030870;28;20484;-67
2022/11/27 03:54:08;;;;;;;1999.90;999.90;;;1.40;99.90;;;;;;5029369;28;20452;-67
2022/11/27 03:56:39;;;;;;;1999.90;999.90;;;1.40;99.90;;;;;;5030488;28;20452;-67
2022/11/27 03:59:12;;;;;;;1999.90;999.90;;;1.30;99.90;;;;;;5029858;28;20461;-67
2022/11/27 04:01:41;;;;;;;1999.90;999.90;;;1.30;99.90;;;;;;5030529;28;20934;-68
2022/11/27 04:04:08;;;;;;;1999.90;999.90;;;1.30;99.90;;;;;;5030319;28;20816;-67
2022/11/27 04:06:34;;;;;;;1999.90;999.90;;;1.30;99.90;;;;;;5030412;28;20445;-67
2022/11/27 04:09:01;;;;;;;1999.90;999.90;;;1.40;99.90;;;;;;5030205;28;20464;-67
2022/11/27 04:11:28;;;;;;;1999.90;999.90;;;1.40;99.90;;;;;;5029917;28;20523;-67
2022/11/27 04:13:55;;;;;;;1999.90;999.90;;;1.40;99.90;;;;;;5030257;28;21240;-68
2022/11/27 04:16:21;;;;;;;1999.90;999.90;;;1.40;99.90;;;;;;5030052;28;20824;-67
2022/11/27 04:18:50;;;;;;;1999.90;999.90;;;1.40;99.90;;;;;;5030061;28;20445;-67
2022/11/27 04:21:16;;;;;;;1999.90;999.90;;;1.30;99.90;;;;;;5030019;28;20841;-67
2022/11/27 04:23:43;;;;;;;1999.90;999.90;;;1.30;99.90;;;;;;5030380;28;20446;-66
2022/11/27 04:26:10;;;;;;;1999.90;999.90;;;1.30;99.90;;;;;;5029837;28;20448;-67
2022/11/27 04:28:37;;;;;;;1999.90;999.90;;;1.30;99.90;;;;;;5030373;28;21222;-67
2022/11/27 04:31:04;;;;;;;1999.90;999.90;;;1.20;99.90;;;;;;5030197;28;20485;-67
2022/11/27 04:33:31;;;;;;;1999.90;999.90;;;1.10;99.90;;;;;;5030306;28;20449;-67
2022/11/27 04:35:59;;;;;;;1999.90;999.90;;;1.00;99.90;;;;;;5030096;28;20452;-68
2022/11/27 04:38:26;;;;;;;1999.90;999.90;;;1.00;99.90;;;;;;5029391;28;20459;-67
2022/11/27 04:40:53;;;;;;;1999.90;999.90;;;1.00;99.90;;;;;;5029737;28;20469;-68
2022/11/27 04:43:20;;;;;;;1999.90;999.90;;;1.00;99.90;;;;;;5029893;28;20459;-68
2022/11/27 04:45:46;;;;;;;1999.90;999.90;;;0.80;99.90;;;;;;5030136;28;20445;-68
2022/11/27 04:48:13;;;;;;;1999.90;999.90;;;0.90;99.90;;;;;;5029501;28;20449;-67
2022/11/27 04:50:40;;;;;;;1999.90;999.90;;;1.00;99.90;;;;;;5029822;28;20485;-67
2022/11/27 04:53:08;;;;;;;1999.90;999.90;;;1.00;99.90;;;;;;5029528;28;20440;-68
2022/11/27 04:55:35;;;;;;;1999.90;999.90;;;1.00;99.90;;;;;;5029559;28;20462;-68
2022/11/27 04:58:02;;;;;;;1999.90;999.90;;;1.00;99.90;;;;;;5029869;28;20444;-68
2022/11/27 05:00:29;;;;;;;1999.90;999.90;;;1.10;99.90;;;;;;5029228;28;20989;-67
2022/11/27 05:02:55;;;;;;;1999.90;999.90;;;1.20;99.90;;;;;;5029844;28;20484;-68
2022/11/27 05:05:22;;;;;;;1999.90;999.90;;;1.30;99.90;;;;;;5031113;28;20539;-67
2022/11/27 05:07:49;;;;;;;1999.90;999.90;;;1.30;99.90;;;;;;5033748;28;20449;-67
2022/11/27 05:10:17;;;;;;;1999.90;999.90;;;1.30;99.90;;;;;;5032923;28;20489;-68
2022/11/27 05:12:44;;;;;;;1999.90;999.90;;;1.30;99.90;;;;;;5033836;28;20440;-67
2022/11/27 05:15:11;;;;;;;1999.90;999.90;;;1.30;99.90;;;;;;5033477;28;20452;-67
2022/11/27 05:17:38;;;;;;;1999.90;999.90;;;1.20;99.90;;;;;;5033642;28;20459;-67
2022/11/27 05:20:06;;;;;;;1999.90;999.90;;;1.10;99.90;;;;;;5033424;28;20464;-67
2022/11/27 05:22:33;;;;;;;1999.90;999.90;;;1.10;99.90;;;;;;5033486;28;20445;-67
2022/11/27 05:25:00;;;;;;;1999.90;999.90;;;1.10;99.90;;;;;;5033619;28;20871;-68
2022/11/27 05:27:28;;;;;;;1999.90;999.90;;;1.10;99.90;;;;;;5033302;28;20848;-68
2022/11/27 05:29:55;;;;;;;1999.90;999.90;;;1.10;99.90;;;;;;5033075;28;20470;-68
2022/11/27 05:32:21;;;;;;;1999.90;999.90;;;1.10;99.90;;;;;;5032982;28;21160;-68
2022/11/27 05:34:48;;;;;;;1999.90;999.90;;;1.20;99.90;;;;;;5033064;28;20992;-68
2022/11/27 05:37:15;;;;;;;1999.90;999.90;;;1.40;99.90;;;;;;5032881;28;20456;-68
2022/11/27 05:39:42;;;;;;;1999.90;999.90;;;1.30;99.90;;;;;;5032900;28;20840;-68
2022/11/27 05:42:09;;;;;;;1999.90;999.90;;;1.30;99.90;;;;;;5032814;28;20957;-68
2022/11/27 05:44:37;;;;;;;1999.90;999.90;;;1.30;99.90;;;;;;5033181;28;20472;-67
2022/11/27 05:47:04;;;;;;;1999.90;999.90;;;1.40;99.90;;;;;;5033046;28;20818;-67
2022/11/27 05:49:31;;;;;;;1999.90;999.90;;;1.40;99.90;;;;;;5032467;28;20499;-68
2022/11/27 05:51:57;;;;;;;1999.90;999.90;;;1.30;99.90;;;;;;5033244;28;20506;-68
2022/11/27 05:54:24;;;;;;;1999.90;999.90;;;1.20;99.90;;;;;;5032904;28;20448;-68
2022/11/27 05:56:51;;;;;;;1999.90;999.90;;;1.30;99.90;;;;;;5033288;28;20536;-68
2022/11/27 05:59:18;;;;;;;1999.90;999.90;;;1.30;99.90;;;;;;5032401;28;20455;-68
2022/11/27 06:01:48;;;;;;;1999.90;999.90;;;1.40;99.90;;;;;;5033073;28;20445;-68
2022/11/27 06:04:14;;;;;;;1999.90;999.90;;;1.30;99.90;;;;;;5032731;28;20531;-67
2022/11/27 06:06:41;;;;;;;1999.90;999.90;;;1.40;99.90;;;;;;5033160;28;20456;-68
2022/11/27 06:09:08;;;;;;;1999.90;999.90;;;1.40;99.90;;;;;;5032258;28;20456;-65
2022/11/27 06:11:35;;;;;;;1999.90;999.90;;;1.40;99.90;;;;;;5032771;28;20487;-68
2022/11/27 06:14:01;;;;;;;1999.90;999.90;;;1.50;99.90;;;;;;5032765;28;20445;-68
2022/11/27 06:16:28;;;;;;;1999.90;999.90;;;1.40;99.90;;;;;;5031266;28;20449;-68
2022/11/27 06:18:56;;;;;;;1999.90;999.90;;;1.50;99.90;;;;;;5032165;28;20456;-68
2022/11/27 06:21:24;;;;;;;1999.90;999.90;;;1.50;99.90;;;;;;5032175;28;20970;-68
2022/11/27 06:23:54;;;;;;;1999.90;999.90;;;1.50;99.90;;;;;;5032622;28;20460;-68
2022/11/27 06:26:22;;;;;;;1999.90;999.90;;;1.50;99.90;;;;;;5032426;28;20531;-68
2022/11/27 06:28:50;;;;;;;1999.90;999.90;;;1.40;99.90;;;;;;5032268;28;20441;-68
2022/11/27 06:31:19;;;;;;;1999.90;999.90;;;1.30;99.90;;;;;;5032178;28;20495;-68
2022/11/27 06:33:46;;;;;;;1999.90;999.90;;;1.20;99.90;;;;;;5032877;28;20826;-68
2022/11/27 06:36:14;;;;;;;1999.90;999.90;;;1.30;99.90;;;;;;5031936;28;20476;-68
2022/11/27 06:38:41;;;;;;;1999.90;999.90;;;1.20;99.90;;;;;;5031879;28;20449;-67
2022/11/27 06:41:10;;;;;;;1999.90;999.90;;;1.20;99.90;;;;;;5031866;28;20472;-68
2022/11/27 06:43:37;;;;;;;1999.90;999.90;;;1.10;99.90;;;;;;5031713;28;20449;-67
2022/11/27 06:46:05;;;;;;;1999.90;999.90;;;1.10;99.90;;;;;;5031895;28;20444;-67
2022/11/27 06:48:32;;;;;;;1999.90;999.90;;;1.10;99.90;;;;;;5031503;28;20445;-68
2022/11/27 06:51:00;;;;;;;1999.90;999.90;;;1.00;99.90;;;;;;5031824;28;20476;-68
2022/11/27 06:53:29;;;;;;;1999.90;999.90;;;1.00;99.90;;;;;;5031501;28;20449;-68
2022/11/27 06:55:55;;;;;;;1999.90;999.90;;;0.90;99.90;;;;;;5031670;28;20449;-68
2022/11/27 06:58:23;;;;;;;1999.90;999.90;;;0.90;99.90;;;;;;5031136;28;20455;-68
2022/11/27 07:00:49;;;;;;;1999.90;999.90;;;0.90;99.90;;;;;;5031624;28;20518;-68
2022/11/27 07:03:16;;;;;;;1999.90;999.90;;;0.90;99.90;;;;;;5031457;28;20441;-68
2022/11/27 07:05:43;;;;;;;1999.90;999.90;;;0.90;99.90;;;;;;5031553;28;20954;-68
2022/11/27 07:08:10;;;;;;;1999.90;999.90;;;0.90;99.90;;;;;;5031299;28;21034;-68
2022/11/27 07:10:38;;;;;;;1999.90;999.90;;;0.90;99.90;;;;;;5030850;28;20488;-68
2022/11/27 07:13:05;;;;;;;1999.90;999.90;;;1.00;99.90;;;;;;5031255;28;20459;-67
2022/11/27 07:15:32;;;;;;;1999.90;999.90;;;1.00;99.90;;;;;;5047722;28;20444;-68
2022/11/27 07:17:59;;;;;;;1999.90;999.90;;;1.00;99.90;;;;;;5051330;28;20444;-68
2022/11/27 07:20:25;;;;;;;1999.90;999.90;;;1.00;99.90;;;;;;5050628;28;20464;-68
2022/11/27 07:22:52;;;;;;;1999.90;999.90;;;1.00;99.90;;;;;;5051131;28;20452;-68
2022/11/27 07:25:19;;;;;;;1999.90;999.90;;;1.10;99.90;;;;;;5050813;28;20448;-68
2022/11/27 07:27:47;;;;;;;1999.90;999.90;;;1.20;99.90;;;;;;5050693;28;20456;-67
2022/11/27 07:30:15;;;;;;;1999.90;999.90;;;1.20;99.90;;;;;;5050744;28;20467;-68
2022/11/27 07:32:42;;;;;;;1999.90;999.90;;;1.20;99.90;;;;;;5050694;28;20440;-68
2022/11/27 07:35:09;;;;;;;1999.90;999.90;;;1.20;99.90;;;;;;5050759;28;20961;-68
2022/11/27 07:37:36;;;;;;;1999.90;999.90;;;1.20;99.90;;;;;;5050583;28;20538;-68
2022/11/27 07:40:03;;;;;;;1999.90;999.90;;;1.20;99.90;;;;;;5050486;28;20464;-68
2022/11/27 07:42:30;;;;;;;1999.90;999.90;;;1.30;99.90;;;;;;5051223;28;20446;-68
2022/11/27 07:44:58;;;;;;;1999.90;999.90;;;1.20;99.90;;;;;;5051004;28;20949;-68
2022/11/27 07:47:25;;;;;;;1999.90;999.90;;;1.30;99.90;;;;;;5050721;28;20463;-69
2022/11/27 07:49:53;;;;;;;1999.90;999.90;;;1.40;99.90;;;;;;5050283;28;20558;-68
2022/11/27 07:52:20;;;;;;;1999.90;999.90;;;1.50;99.90;;;;;;5050469;28;20529;-68
2022/11/27 07:54:47;;;;;;;1999.90;999.90;;;1.60;99.90;;;;;;5050635;28;20822;-68
2022/11/27 07:57:14;;;;;;;1999.90;999.90;;;1.60;99.90;;;;;;5050704;28;20816;-68
2022/11/27 07:59:40;;;;;;;1999.90;999.90;;;1.60;99.90;;;;;;5050008;28;20468;-69
2022/11/27 08:02:11;;;;;;;1999.90;999.90;;;1.70;99.90;;;;;;5050549;28;20448;-67
2022/11/27 08:04:38;;;;;;;1999.90;999.90;;;1.70;99.90;;;;;;5050135;28;20466;-67
2022/11/27 08:07:05;;;;;;;1999.90;999.90;;;1.70;99.90;;;;;;5050305;28;20448;-68
2022/11/27 08:09:32;;;;;;;1999.90;999.90;;;1.70;99.90;;;;;;5049748;28;20490;-69
2022/11/27 08:11:59;;;;;;;1999.90;999.90;;;1.70;99.90;;;;;;5050225;28;20507;-69
2022/11/27 08:14:25;;;;;;;1999.90;999.90;;;1.70;99.90;;;;;;5050079;28;20439;-65
2022/11/27 08:16:52;;;;;;;1999.90;999.90;;;1.70;99.90;;;;;;5050147;28;20448;-67
2022/11/27 08:19:20;;;;;;;1999.90;999.90;;;1.90;99.90;;;;;;5049375;28;20538;-67
2022/11/27 08:21:47;;;;;;;1999.90;999.90;;;2.10;99.90;;;;;;5049876;28;20440;-67
2022/11/27 08:24:14;;;;;;;1999.90;999.90;;;2.10;99.90;;;;;;5050346;28;20441;-67
2022/11/27 08:26:41;;;;;;;1999.90;999.90;;;2.20;99.90;;;;;;5049770;28;20444;-67
2022/11/27 08:29:10;;;;;;;1999.90;999.90;;;2.30;99.90;;;;;;5049539;28;20450;-68
2022/11/27 08:31:37;;;;;;;1999.90;999.90;;;2.40;99.90;;;;;;5049383;28;20483;-68
2022/11/27 08:34:04;;;;;;;1999.90;999.90;;;2.50;99.90;;;;;;5049540;28;20448;-67
2022/11/27 08:36:32;;;;;;;1999.90;999.90;;;2.70;99.90;;;;;;5047555;28;20455;-67
2022/11/27 08:38:58;;;;;;;1999.90;999.90;;;3.00;99.90;;;;;;5048961;28;20440;-66
2022/11/27 08:41:25;;;;;;;1999.90;999.90;;;3.20;99.90;;;;;;5048939;28;20460;-67
2022/11/27 08:43:52;;;;;;;1999.90;999.90;;;3.30;99.90;;;;;;5049723;28;20446;-69
2022/11/27 08:46:19;;;;;;;1999.90;999.90;;;3.50;99.90;;;;;;5049888;28;20456;-68
2022/11/27 08:48:45;;;;;;;1999.90;999.90;;;3.60;99.90;;;;;;5049141;28;20444;-69
2022/11/27 08:51:14;;;;;;;1999.90;999.90;;;3.70;99.90;;;;;;5050050;28;20484;-68
2022/11/27 08:53:44;;;;;;;1999.90;999.90;;;3.90;99.90;;;;;;5049618;28;21089;-67
2022/11/27 08:56:15;;;;;;;1999.90;999.90;;;4.10;99.90;;;;;;5049831;28;20541;-68
2022/11/27 08:58:42;;;;;;;1999.90;999.90;;;4.30;99.90;;;;;;5048881;28;20455;-69
2022/11/27 09:01:11;;;;;;;1999.90;999.90;;;4.40;99.90;;;;;;5049410;28;20471;-68
2022/11/27 09:03:38;;;;;;;1999.90;999.90;;;4.80;99.90;;;;;;5049193;28;21144;-68
2022/11/27 09:06:07;;;;;;;1999.90;999.90;;;5.20;99.90;;;;;;5048633;28;20451;-68
2022/11/27 09:08:34;;;;;;;1999.90;999.90;;;5.50;99.90;;;;;;5046113;28;20466;-68
2022/11/27 09:11:04;;;;;;;1999.90;999.90;;;5.80;99.90;;;;;;5039659;28;20472;-68
2022/11/27 09:13:31;;;;;;;1999.90;999.90;;;6.10;99.90;;;;;;5043841;28;20451;-69
2022/11/27 09:15:58;;;;;;;1999.90;999.90;;;6.00;99.90;;;;;;5047673;28;20441;-69
2022/11/27 09:18:25;;;;;;;1999.90;999.90;;;6.10;99.90;;;;;;5048047;28;20439;-69
2022/11/27 09:20:57;;;;;;;1999.90;999.90;;;6.10;99.90;;;;;;5045803;28;20498;-70
2022/11/27 09:23:24;;;;;;;1999.90;999.90;;;6.10;99.90;;;;;;5040561;28;20459;-69
2022/11/27 09:25:51;;;;;;;1999.90;999.90;;;6.10;99.90;;;;;;5038785;28;20531;-70
2022/11/27 09:28:19;;;;;;;1999.90;999.90;;;6.10;99.90;;;;;;5036749;28;20449;-70
2022/11/27 09:30:46;;;;;;;1999.90;999.90;;;6.10;99.90;;;;;;5037879;28;20468;-69
2022/11/27 09:33:13;;;;;;;1999.90;999.90;;;6.20;99.90;;;;;;5036673;28;21104;-69
2022/11/27 09:35:40;;;;;;;1999.90;999.90;;;6.20;99.90;;;;;;5037322;28;20461;-69
2022/11/27 09:38:06;;;;;;;1999.90;999.90;;;6.30;99.90;;;;;;5038331;28;20449;-69
2022/11/27 09:40:34;;;;;;;1999.90;999.90;;;6.30;99.90;;;;;;5034795;28;20474;-69
2022/11/27 09:43:08;;;;;;;1999.90;999.90;;;6.30;99.90;;;;;;5038143;28;20567;-69
2022/11/27 09:45:43;;;;;;;1999.90;999.90;;;6.20;99.90;;;;;;5036310;28;20485;-69
2022/11/27 09:48:14;;;;;;;1999.90;999.90;;;5.80;99.90;;;;;;5038506;28;20957;-68
2022/11/27 09:50:49;;;;;;;1999.90;999.90;;;5.40;99.90;;;;;;5048357;28;20955;-68
2022/11/27 09:53:23;;;;;;;1999.90;999.90;;;5.20;99.90;;;;;;5042811;28;20483;-69
2022/11/27 09:55:51;;;;;;;1999.90;999.90;;;5.20;99.90;;;;;;5045023;28;20448;-69
2022/11/27 09:58:21;;;;;;;1999.90;999.90;;;5.20;99.90;;;;;;5048716;28;20540;-68
2022/11/27 10:00:50;;;;;;;1999.90;999.90;;;5.40;99.90;;;;;;5040792;28;20475;-69
2022/11/27 10:03:21;;;;;;;1999.90;999.90;;;5.70;99.90;;;;;;5044355;28;20498;-69
2022/11/27 10:06:00;;;;;;;1999.90;999.90;;;5.90;99.90;;;;;;5048839;28;20448;-69
2022/11/27 10:08:35;;;;;;;1999.90;999.90;;;6.40;99.90;;;;;;5045309;28;20993;-69
2022/11/27 10:11:13;;;;;;;1999.90;999.90;;;6.80;99.90;;;;;;5038179;28;20475;-68
2022/11/27 10:13:57;;;;;;;1999.90;999.90;;;7.00;99.90;;;;;;5040262;28;20448;-68
2022/11/27 10:16:31;;;;;;;1999.90;999.90;;;7.10;99.90;;;;;;5040600;28;20452;-68
2022/11/27 10:19:04;;;;;;;1999.90;999.90;;;7.00;99.90;;;;;;5039308;28;20452;-69
2022/11/27 10:21:44;;;;;;;1999.90;999.90;;;6.70;99.90;;;;;;5038729;28;20444;-69
2022/11/27 10:24:19;;;;;;;1999.90;999.90;;;6.50;99.90;;;;;;5038203;28;20460;-70
2022/11/27 10:26:48;;;;;;;1999.90;999.90;;;6.30;99.90;;;;;;5040458;28;20448;-69
2022/11/27 10:29:30;;;;;;;1999.90;999.90;;;6.20;99.90;;;;;;5039892;28;20453;-69
2022/11/27 10:32:02;;;;;;;1999.90;999.90;;;6.10;99.90;;;;;;5041646;28;20480;-68
2022/11/27 10:34:36;;;;;;;1999.90;999.90;;;6.20;99.90;;;;;;5047680;28;20462;-68
2022/11/27 10:37:08;;;;;;;1999.90;999.90;;;6.50;99.90;;;;;;5048466;28;20436;-68
2022/11/27 10:39:40;;;;;;;1999.90;999.90;;;6.70;99.90;;;;;;5048816;28;20843;-69
2022/11/27 10:42:12;;;;;;;1999.90;999.90;;;6.80;99.90;;;;;;5046949;28;20444;-68
2022/11/27 10:44:43;;;;;;;1999.90;999.90;;;6.80;99.90;;;;;;5043734;28;20452;-68
2022/11/27 10:47:14;;;;;;;1999.90;999.90;;;6.60;99.90;;;;;;5048043;28;20501;-68
2022/11/27 10:49:42;;;;;;;1999.90;999.90;;;6.50;99.90;;;;;;5041796;28;20999;-69
2022/11/27 10:52:13;;;;;;;1999.90;999.90;;;6.30;99.90;;;;;;5050979;28;20480;-69
2022/11/27 10:54:41;;;;;;;1999.90;999.90;;;6.30;99.90;;;;;;5057249;28;20442;-69
2022/11/27 10:57:37;;;;;;;1999.90;999.90;;;6.30;99.90;;;;;;5044527;28;20539;-68
2022/11/27 11:00:12;;;;;;;1999.90;999.90;;;6.40;99.90;;;;;;5037649;28;20850;-69
2022/11/27 11:02:40;;;;;;;1999.90;999.90;;;6.50;99.90;;;;;;5043265;28;20447;-68
2022/11/27 11:05:20;;;;;;;1999.90;999.90;;;6.60;99.90;;;;;;5042552;28;20962;-69
2022/11/27 11:07:56;;;;;;;1999.90;999.90;;;6.60;99.90;;;;;;5047507;28;20458;-69
2022/11/27 11:10:28;;;;;;;1999.90;999.90;;;6.70;99.90;;;;;;5038504;28;20469;-70
2022/11/27 11:13:14;;;;;;;1999.90;999.90;;;6.80;99.90;;;;;;5049105;28;20486;-69
2022/11/27 11:15:51;;;;;;;1999.90;999.90;;;6.90;99.90;;;;;;5047070;28;20455;-67
2022/11/27 11:18:21;;;;;;;1999.90;999.90;;;6.90;99.90;;;;;;5043426;28;20544;-68
2022/11/27 11:20:49;;;;;;;1999.90;999.90;;;6.90;99.90;;;;;;5050450;28;20503;-68
2022/11/27 11:23:22;;;;;;;1999.90;999.90;;;7.10;99.90;;;;;;5051756;28;20530;-69
2022/11/27 11:25:51;;;;;;;1999.90;999.90;;;7.20;99.90;;;;;;5043989;28;20452;-69
2022/11/27 11:28:19;;;;;;;1999.90;999.90;;;7.30;99.90;;;;;;5045822;28;20460;-71
2022/11/27 11:30:56;;;;;;;1999.90;999.90;;;7.40;99.90;;;;;;5050191;28;20468;-70
2022/11/27 11:33:25;;;;;;;1999.90;999.90;;;7.30;99.90;;;;;;5050013;28;20471;-69
2022/11/27 11:35:55;;;;;;;1999.90;999.90;;;7.30;99.90;;;;;;5050671;28;20471;-70
2022/11/27 11:38:28;;;;;;;1999.90;999.90;;;7.30;99.90;;;;;;5045227;28;20456;-70
2022/11/27 11:41:01;;;;;;;1999.90;999.90;;;7.30;99.90;;;;;;5050334;28;20968;-70
2022/11/27 11:43:29;;;;;;;1999.90;999.90;;;7.30;99.90;;;;;;5049449;28;20449;-71
2022/11/27 11:46:14;;;;;;;1999.90;999.90;;;7.30;99.90;;;;;;5047969;28;20566;-71
2022/11/27 11:48:56;;;;;;;1999.90;999.90;;;7.30;99.90;;;;;;5045699;28;20462;-72
2022/11/27 11:51:43;;;;;;;1999.90;999.90;;;7.40;99.90;;;;;;5038036;28;20469;-71
2022/11/27 11:54:32;;;;;;;1999.90;999.90;;;7.60;99.90;;;;;;5041789;28;20720;-70
2022/11/27 11:57:03;;;;;;;1999.90;999.90;;;7.70;99.90;;;;;;5045089;28;20949;-72
2022/11/27 11:59:39;;;;;;;1999.90;999.90;;;7.80;99.90;;;;;;5050798;28;20463;-71
2022/11/27 12:02:39;;;;;;;1999.90;999.90;;;7.90;99.90;;;;;;5050524;28;20446;-71
2022/11/27 12:05:22;;;;;;;1999.90;999.90;;;8.00;99.90;;;;;;5049095;28;20478;-71
2022/11/27 12:08:14;;;;;;;1999.90;999.90;;;8.20;99.90;;;;;;5050371;28;20779;-70
2022/11/27 12:10:54;;;;;;;1999.90;999.90;;;8.40;99.90;;;;;;5049753;28;20927;-70
2022/11/27 12:13:38;;;;;;;1999.90;999.90;;;8.50;99.90;;;;;;5044152;28;20567;-71
2022/11/27 12:16:14;;;;;;;1999.90;999.90;;;8.60;99.90;;;;;;5048226;28;20459;-70
2022/11/27 12:18:53;;;;;;;1999.90;999.90;;;8.70;99.90;;;;;;5048617;28;20901;-70
2022/11/27 12:21:26;;;;;;;1999.90;999.90;;;8.90;99.90;;;;;;5044387;28;21009;-71